Bellatrix — XUAB4 — position and weather

sailwx.info

Track history (hours):
 
Tides and Currents Weather Stations Pressure Air Temp Water Temp Dewpoint Dewpoint Depression Visibility Wind Speed Wind Dir Waves Ship Positions

Bellatrix

Last reported at 2016-Jul-21 08:21 UTC. Time now 2016-Jul-25 11:55 UTC.
Position N 45°15' E 036°28'.

Length 114 m; draft 3.9 m.

Type: Cargo ship. MMSI: 515288000.

Date/timePositionNaut miles runAvg speedWind from/ knotsBaromVisibWave heightAir tempDewpointWater temp
2016-Jul-21 08:21N 45°15' E 036°28'5 6.4
2016-Jul-21 07:33N 45°19' E 036°33'7 6.7
2016-Jul-21 06:33N 45°23' E 036°40'6 3.1
2016-Jul-21 04:33N 45°29' E 036°41'5 4.9
2016-Jul-21 03:32N 45°33' E 036°46'94 5.2
2016-Jul-20 09:18N 46°46' E 038°12'1 1.0
2016-Jul-20 08:25N 46°46' E 038°13'0 0.0
2016-Jul-20 07:31N 46°46' E 038°13'0 0.0
2016-Jul-20 06:29N 46°46' E 038°13'0 0.0
2016-Jul-20 05:33N 46°46' E 038°13'0 0.0
2016-Jul-20 04:33N 46°46' E 038°13'0 0.0
2016-Jul-20 03:33N 46°46' E 038°13'0 0.0
2016-Jul-20 02:33N 46°46' E 038°13'0 0.0
2016-Jul-20 01:32N 46°46' E 038°13'0 0.0
2016-Jul-20 00:33N 46°46' E 038°13'0 0.0
2016-Jul-19 23:29N 46°46' E 038°13'0 0.0
2016-Jul-19 22:25N 46°46' E 038°13'0 0.0
2016-Jul-19 21:29N 46°46' E 038°13'0 0.0
2016-Jul-19 20:33N 46°46' E 038°13'0 0.0
2016-Jul-19 19:16N 46°46' E 038°13'0 0.0
2016-Jul-19 17:32N 46°46' E 038°13'0 0.0
2016-Jul-19 16:30N 46°46' E 038°13'0 0.0
2016-Jul-19 15:33N 46°46' E 038°13'0 0.0
2016-Jul-19 14:33N 46°46' E 038°13'0 0.0
2016-Jul-19 13:14N 46°46' E 038°13'0 0.0
2016-Jul-19 12:13N 46°46' E 038°13'0 0.0
2016-Jul-19 11:33N 46°46' E 038°13'0 0.0
2016-Jul-19 10:26N 46°46' E 038°13'0 0.0
2016-Jul-19 04:26N 46°46' E 038°13'0 0.0
2016-Jul-19 03:32N 46°46' E 038°13'0 0.0
2016-Jul-19 02:30N 46°46' E 038°13'0 0.0
2016-Jul-19 01:33N 46°46' E 038°13'0 0.0
2016-Jul-19 00:33N 46°46' E 038°13'0 0.0
2016-Jul-18 23:28N 46°46' E 038°13'0 0.0
2016-Jul-18 22:33N 46°46' E 038°13'0 0.1
2016-Jul-18 21:31N 46°46' E 038°13'0 0.0
2016-Jul-18 18:29N 46°46' E 038°13'0 0.0
2016-Jul-18 16:33N 46°46' E 038°13'0 0.0
2016-Jul-18 15:28N 46°46' E 038°13'0 0.0
2016-Jul-18 12:27N 46°46' E 038°13'0 0.0
2016-Jul-18 11:24N 46°46' E 038°13'0 0.0
2016-Jul-18 10:31N 46°46' E 038°13'0 0.0
2016-Jul-18 09:25N 46°46' E 038°13'0 0.0
2016-Jul-18 08:25N 46°46' E 038°13'0 0.0
2016-Jul-18 04:31N 46°46' E 038°13'0 0.0
2016-Jul-18 03:12N 46°46' E 038°13'0 0.0
2016-Jul-18 02:32N 46°46' E 038°13'0 0.0
2016-Jul-18 01:29N 46°46' E 038°13'0 0.0
2016-Jul-18 00:32N 46°46' E 038°13'0 0.0
2016-Jul-17 18:28N 46°46' E 038°13'3 0.6
2016-Jul-17 13:20N 46°44' E 038°17'0 0.0
2016-Jul-17 12:07N 46°44' E 038°17'0 0.0
2016-Jul-17 11:24N 46°44' E 038°17'0 0.0
2016-Jul-17 10:21N 46°44' E 038°17'0 0.0
2016-Jul-17 07:22N 46°44' E 038°17'0 0.0
2016-Jul-17 06:27N 46°44' E 038°17'0 0.0
2016-Jul-17 03:17N 46°44' E 038°17'0 0.0
2016-Jul-17 02:24N 46°44' E 038°17'0 0.0
2016-Jul-17 01:32N 46°44' E 038°17'0 0.0
2016-Jul-17 00:33N 46°44' E 038°17'0 0.0
2016-Jul-16 23:25N 46°44' E 038°17'0 0.0
2016-Jul-16 22:25N 46°44' E 038°17'0 0.0
2016-Jul-16 21:12N 46°44' E 038°17'0 0.0
2016-Jul-16 20:20N 46°44' E 038°17'0 0.0
2016-Jul-16 19:31N 46°44' E 038°17'0 0.0
2016-Jul-16 17:15N 46°44' E 038°17'0 0.0
2016-Jul-16 16:34N 46°44' E 038°17'0 0.0
2016-Jul-16 15:33N 46°44' E 038°17'0 0.0
2016-Jul-16 14:10N 46°44' E 038°17'0 0.0
2016-Jul-16 13:22N 46°44' E 038°17'0 0.0
2016-Jul-16 12:33N 46°44' E 038°17'0 0.0
2016-Jul-16 11:34N 46°44' E 038°17'0 0.0
2016-Jul-16 10:21N 46°44' E 038°17'0 0.0
2016-Jul-16 08:31N 46°44' E 038°17'0 0.0
2016-Jul-16 07:34N 46°44' E 038°17'0 0.0
2016-Jul-16 06:33N 46°44' E 038°17'2 0.6
2016-Jul-16 03:15N 46°45' E 038°14'0 0.0
2016-Jul-16 02:32N 46°45' E 038°14'0 0.0
2016-Jul-16 01:30N 46°45' E 038°14'0 0.1
2016-Jul-16 00:12N 46°45' E 038°14'4 5.5
2016-Jul-15 23:33N 46°47' E 038°10'6 6.1
2016-Jul-15 22:33N 46°51' E 038°04'6 5.8
2016-Jul-15 21:28N 46°54' E 037°56'6 6.5
2016-Jul-15 20:29N 46°53' E 037°46'6 6.6
2016-Jul-15 19:33N 46°51' E 037°38'92 7.1
2016-Jul-15 06:33N 45°28' E 036°42'7 7.3
2016-Jul-15 05:33N 45°21' E 036°39'8 7.6
2016-Jul-15 04:32N 45°18' E 036°29'3 2.8
2016-Jul-15 03:33N 45°15' E 036°29'2 1.9
2016-Jul-15 02:33N 45°13' E 036°29'2 1.1
2016-Jul-15 00:33N 45°11' E 036°30'0 0.0
2016-Jul-14 23:33N 45°11' E 036°30'0 0.0
2016-Jul-14 22:33N 45°11' E 036°30'0 0.0
2016-Jul-14 21:22N 45°11' E 036°30'7 5.9
2016-Jul-14 20:08N 45°04' E 036°30'28 6.2
2016-Jul-14 15:32N 44°42' E 036°05'8 7.5
2016-Jul-14 14:32N 44°41' E 035°54'45 6.4
2016-Jul-14 07:30N 44°22' E 034°57'7 7.2
2016-Jul-14 06:33N 44°15' E 034°56'24 7.5
2016-Jul-14 03:18N 43°51' E 034°53'7 7.7
2016-Jul-14 02:26N 43°45' E 034°54'9 8.0
2016-Jul-14 01:20N 43°36' E 034°54'79 7.7
2016-Jul-13 15:05N 42°17' E 035°03'  
Track history (hours):
 
Tides and Currents Weather Stations Pressure Air Temp Water Temp Dewpoint Dewpoint Depression Visibility Wind Speed Wind Dir Waves Ship Positions

Bellatrix

Last reported at 2016-Jul-21 08:21 UTC. Time now 2016-Jul-25 11:55 UTC.
Position N 45°15' E 036°28'.

Length 114 m; draft 3.9 m.

Type: Cargo ship. MMSI: 515288000.

Date/timePositionNaut miles runAvg speedWind from/ knotsBaromVisibWave heightAir tempDewpointWater temp
2016-Jul-21 08:21N 45°15' E 036°28'5 6.4
2016-Jul-21 07:33N 45°19' E 036°33'7 6.7
2016-Jul-21 06:33N 45°23' E 036°40'6 3.1
2016-Jul-21 04:33N 45°29' E 036°41'5 4.9
2016-Jul-21 03:32N 45°33' E 036°46'94 5.2
2016-Jul-20 09:18N 46°46' E 038°12'1 1.0
2016-Jul-20 08:25N 46°46' E 038°13'0 0.0
2016-Jul-20 07:31N 46°46' E 038°13'0 0.0
2016-Jul-20 06:29N 46°46' E 038°13'0 0.0
2016-Jul-20 05:33N 46°46' E 038°13'0 0.0
2016-Jul-20 04:33N 46°46' E 038°13'0 0.0
2016-Jul-20 03:33N 46°46' E 038°13'0 0.0
2016-Jul-20 02:33N 46°46' E 038°13'0 0.0
2016-Jul-20 01:32N 46°46' E 038°13'0 0.0
2016-Jul-20 00:33N 46°46' E 038°13'0 0.0
2016-Jul-19 23:29N 46°46' E 038°13'0 0.0
2016-Jul-19 22:25N 46°46' E 038°13'0 0.0
2016-Jul-19 21:29N 46°46' E 038°13'0 0.0
2016-Jul-19 20:33N 46°46' E 038°13'0 0.0
2016-Jul-19 19:16N 46°46' E 038°13'0 0.0
2016-Jul-19 17:32N 46°46' E 038°13'0 0.0
2016-Jul-19 16:30N 46°46' E 038°13'0 0.0
2016-Jul-19 15:33N 46°46' E 038°13'0 0.0
2016-Jul-19 14:33N 46°46' E 038°13'0 0.0
2016-Jul-19 13:14N 46°46' E 038°13'0 0.0
2016-Jul-19 12:13N 46°46' E 038°13'0 0.0
2016-Jul-19 11:33N 46°46' E 038°13'0 0.0
2016-Jul-19 10:26N 46°46' E 038°13'0 0.0
2016-Jul-19 04:26N 46°46' E 038°13'0 0.0
2016-Jul-19 03:32N 46°46' E 038°13'0 0.0
2016-Jul-19 02:30N 46°46' E 038°13'0 0.0
2016-Jul-19 01:33N 46°46' E 038°13'0 0.0
2016-Jul-19 00:33N 46°46' E 038°13'0 0.0
2016-Jul-18 23:28N 46°46' E 038°13'0 0.0
2016-Jul-18 22:33N 46°46' E 038°13'0 0.1
2016-Jul-18 21:31N 46°46' E 038°13'0 0.0
2016-Jul-18 18:29N 46°46' E 038°13'0 0.0
2016-Jul-18 16:33N 46°46' E 038°13'0 0.0
2016-Jul-18 15:28N 46°46' E 038°13'0 0.0
2016-Jul-18 12:27N 46°46' E 038°13'0 0.0
2016-Jul-18 11:24N 46°46' E 038°13'0 0.0
2016-Jul-18 10:31N 46°46' E 038°13'0 0.0
2016-Jul-18 09:25N 46°46' E 038°13'0 0.0
2016-Jul-18 08:25N 46°46' E 038°13'0 0.0
2016-Jul-18 04:31N 46°46' E 038°13'0 0.0
2016-Jul-18 03:12N 46°46' E 038°13'0 0.0
2016-Jul-18 02:32N 46°46' E 038°13'0 0.0
2016-Jul-18 01:29N 46°46' E 038°13'0 0.0
2016-Jul-18 00:32N 46°46' E 038°13'0 0.0
2016-Jul-17 18:28N 46°46' E 038°13'3 0.6
2016-Jul-17 13:20N 46°44' E 038°17'0 0.0
2016-Jul-17 12:07N 46°44' E 038°17'0 0.0
2016-Jul-17 11:24N 46°44' E 038°17'0 0.0
2016-Jul-17 10:21N 46°44' E 038°17'0 0.0
2016-Jul-17 07:22N 46°44' E 038°17'0 0.0
2016-Jul-17 06:27N 46°44' E 038°17'0 0.0
2016-Jul-17 03:17N 46°44' E 038°17'0 0.0
2016-Jul-17 02:24N 46°44' E 038°17'0 0.0
2016-Jul-17 01:32N 46°44' E 038°17'0 0.0
2016-Jul-17 00:33N 46°44' E 038°17'0 0.0
2016-Jul-16 23:25N 46°44' E 038°17'0 0.0
2016-Jul-16 22:25N 46°44' E 038°17'0 0.0
2016-Jul-16 21:12N 46°44' E 038°17'0 0.0
2016-Jul-16 20:20N 46°44' E 038°17'0 0.0
2016-Jul-16 19:31N 46°44' E 038°17'0 0.0
2016-Jul-16 17:15N 46°44' E 038°17'0 0.0
2016-Jul-16 16:34N 46°44' E 038°17'0 0.0
2016-Jul-16 15:33N 46°44' E 038°17'0 0.0
2016-Jul-16 14:10N 46°44' E 038°17'0 0.0
2016-Jul-16 13:22N 46°44' E 038°17'0 0.0
2016-Jul-16 12:33N 46°44' E 038°17'0 0.0
2016-Jul-16 11:34N 46°44' E 038°17'0 0.0
2016-Jul-16 10:21N 46°44' E 038°17'0 0.0
2016-Jul-16 08:31N 46°44' E 038°17'0 0.0
2016-Jul-16 07:34N 46°44' E 038°17'0 0.0
2016-Jul-16 06:33N 46°44' E 038°17'2 0.6
2016-Jul-16 03:15N 46°45' E 038°14'0 0.0
2016-Jul-16 02:32N 46°45' E 038°14'0 0.0
2016-Jul-16 01:30N 46°45' E 038°14'0 0.1
2016-Jul-16 00:12N 46°45' E 038°14'4 5.5
2016-Jul-15 23:33N 46°47' E 038°10'6 6.1
2016-Jul-15 22:33N 46°51' E 038°04'6 5.8
2016-Jul-15 21:28N 46°54' E 037°56'6 6.5
2016-Jul-15 20:29N 46°53' E 037°46'6 6.6
2016-Jul-15 19:33N 46°51' E 037°38'92 7.1
2016-Jul-15 06:33N 45°28' E 036°42'7 7.3
2016-Jul-15 05:33N 45°21' E 036°39'8 7.6
2016-Jul-15 04:32N 45°18' E 036°29'3 2.8
2016-Jul-15 03:33N 45°15' E 036°29'2 1.9
2016-Jul-15 02:33N 45°13' E 036°29'2 1.1
2016-Jul-15 00:33N 45°11' E 036°30'0 0.0
2016-Jul-14 23:33N 45°11' E 036°30'0 0.0
2016-Jul-14 22:33N 45°11' E 036°30'0 0.0
2016-Jul-14 21:22N 45°11' E 036°30'7 5.9
2016-Jul-14 20:08N 45°04' E 036°30'28 6.2
2016-Jul-14 15:32N 44°42' E 036°05'8 7.5
2016-Jul-14 14:32N 44°41' E 035°54'45 6.4
2016-Jul-14 07:30N 44°22' E 034°57'7 7.2
2016-Jul-14 06:33N 44°15' E 034°56'24 7.5
2016-Jul-14 03:18N 43°51' E 034°53'7 7.7
2016-Jul-14 02:26N 43°45' E 034°54'9 8.0
2016-Jul-14 01:20N 43°36' E 034°54'79 7.7
2016-Jul-13 15:05N 42°17' E 035°03'  

Dump ship's entire track history